Latest Weather Observations for Cape Otway

IDV60801

Issued at 1:02 pm EDT Monday 5 December 2016 (issued every 30 minutes, with the page automatically refreshed every 10 minutes)

About weather observations | Map of weather stations | Latest weather observations for VIC | Other Formats
Station Details ID: 090015 Name: CAPE OTWAY LIGHTHOUSE Lat: -38.86 Lon: 143.51 Height: 82.0 m
Data from the previous 72 hours. | See also: Recent months at Cape Otway
Date/Time
EDT
Temp
°C
App
Temp
°C
Dew
Point
°C
Rel
Hum
%
Delta-T
°C
Wind Press
QNH
hPa
Press
MSL
hPa
Rain since
9am
mm
Dir  Spd
km/h
Gust
km/h
Spd
kts
Gust
kts
05/01:00pm 15.0 11.0 10.6 75 2.3 WSW 22 32 12 17 1013.1 1013.0 0.0
05/12:30pm 15.8 11.6 11.0 73 2.6 W 24 39 13 21 1013.0 1012.9 0.0
05/12:00pm 15.3 10.5 10.3 72 2.6 WSW 26 33 14 18 1012.9 1012.8 0.0
05/11:30am 16.2 11.2 9.4 64 3.5 W 26 35 14 19 1012.7 1012.6 0.0
05/11:00am 16.4 11.8 9.8 65 3.5 W 24 32 13 17 1012.6 1012.5 0.0
05/10:30am 15.7 10.3 9.6 67 3.2 W 28 35 15 19 1012.4 1012.3 0.0
05/10:00am 15.4 10.3 9.1 66 3.2 W 26 35 14 19 1012.2 1012.1 0.0
05/09:30am 15.6 9.3 9.1 65 3.4 W 32 41 17 22 1011.7 1011.6 0.0
05/09:00am 14.9 8.9 8.8 67 3.1 W 30 43 16 23 1011.4 1011.3 2.4
05/08:30am 15.2 8.7 9.1 67 3.1 WSW 33 46 18 25 1010.8 1010.7 2.4
05/08:00am 14.6 7.7 9.0 69 2.9 WSW 35 50 19 27 1010.2 1010.1 2.4
05/07:30am 14.3 6.8 9.3 72 2.6 W 39 52 21 28 1009.4 1009.3 2.4
05/07:00am 14.6 7.8 9.4 71 2.7 W 35 46 19 25 1008.9 1008.8 2.4
05/06:30am 14.5 7.3 9.3 71 2.7 W 37 50 20 27 1008.5 1008.4 2.4
05/06:00am 14.6 7.2 9.8 73 2.5 W 39 52 21 28 1008.0 1007.9 2.4
05/05:30am 14.4 7.5 10.4 77 2.1 W 37 52 20 28 1007.8 1007.7 2.4
05/05:00am 14.5 7.4 10.9 79 1.9 W 39 54 21 29 1007.2 1007.1 2.4
05/04:30am 14.6 7.6 11.4 81 1.7 W 39 50 21 27 1006.5 1006.4 2.4
05/04:00am 15.0 8.8 12.7 86 1.3 W 37 52 20 28 1006.1 1005.9 2.4
05/03:48am 14.6 8.7 12.5 87 1.2 W 35 54 19 29 1005.9 1005.7 2.4
05/03:30am 15.1 10.1 13.3 89 1.0 W 32 44 17 24 1005.7 1005.5 2.4
05/03:00am 15.5 10.4 13.7 89 1.0 W 33 50 18 27 1005.2 1005.0 2.4
05/02:55am 15.6 10.7 13.8 89 1.0 WNW 32 50 17 27 1005.2 1005.0 2.2
05/02:30am 16.2 11.2 13.9 86 1.3 WNW 33 50 18 27 1004.8 1004.6 2.2
05/02:03am 17.4 12.4 14.1 81 1.9 WNW 33 54 18 29 1004.0 1003.8 2.2
05/02:00am 17.5 12.7 14.0 80 2.0 WNW 32 46 17 25 1004.0 1003.8 2.2
05/01:36am 18.9 12.0 14.0 73 2.8 W 43 61 23 33 1003.2 1003.0 2.2
05/01:30am 19.7 13.2 14.1 70 3.2 WNW 41 59 22 32 1003.0 1002.8 2.2
05/01:24am 22.4 17.3 14.8 62 4.5 NW 35 57 19 31 1002.6 1002.4 2.2
05/01:00am 23.5 16.8 14.5 57 5.4 NNW 43 74 23 40 1001.7 1001.6 2.2
05/12:30am 23.3 16.9 14.3 57 5.3 NNW 41 65 22 35 1001.4 1001.3 2.2
05/12:00am 23.1 18.3 14.7 59 5.0 NNW 33 57 18 31 1001.4 1001.3 2.2
 
Date/Time
EDT
Temp
°C
App
Temp
°C
Dew
Point
°C
Rel
Hum
%
Delta-T
°C
Wind Press
QNH
hPa
Press
MSL
hPa
Rain since
9am
mm
Dir  Spd
km/h
Gust
km/h
Spd
kts
Gust
kts
04/11:30pm 22.0 16.9 14.9 64 4.2 N 35 57 19 31 1001.3 1001.2 2.2
04/11:00pm 21.9 16.9 15.0 65 4.1 N 35 54 19 29 1001.4 1001.3 2.2
04/10:30pm 21.9 16.2 15.3 66 3.9 N 39 59 21 32 1001.8 1001.7 2.2
04/10:00pm 21.8 15.7 15.2 66 3.9 N 41 61 22 33 1001.9 1001.8 2.2
04/09:43pm 21.6 16.5 14.7 65 4.1 N 35 54 19 29 1001.8 1001.7 2.2
04/09:30pm 21.7 17.1 15.1 66 3.9 N 33 50 18 27 1001.9 1001.8 2.2
04/09:19pm 21.6 16.7 15.2 67 3.8 N 35 54 19 29 1002.0 1001.9 2.2
04/09:00pm 21.4 16.6 15.5 69 3.5 N 35 50 19 27 1002.1 1002.0 2.2
04/08:30pm 21.1 16.9 15.6 71 3.3 N 32 50 17 27 1002.5 1002.3 2.2
04/08:27pm 21.0 17.6 15.8 72 3.1 N 28 50 15 27 1002.5 1002.3 2.2
04/08:00pm 20.6 18.0 16.0 75 2.8 N 24 39 13 21 1003.1 1002.9 2.2
04/07:31pm 20.0 16.1 16.4 80 2.2 N 32 50 17 27 1003.1 1002.9 2.2
04/07:30pm 20.0 15.9 16.4 80 2.2 N 33 50 18 27 1003.1 1002.9 2.2
04/07:13pm 19.6 16.4 16.3 81 2.0 N 28 52 15 28 1003.7 1003.5 2.2
04/07:00pm 19.7 17.2 16.2 80 2.1 NNW 24 41 13 22 1004.0 1003.8 2.0
04/06:30pm 20.0 18.0 15.4 75 2.7 N 20 37 11 20 1004.7 1004.5 1.4
04/06:00pm 21.5 18.0 15.6 69 3.5 NW 28 43 15 23 1005.2 1005.0 0.2
04/05:30pm 23.2 19.2 14.2 57 5.3 WNW 28 48 15 26 1004.7 1004.5 0.0
04/05:24pm 24.4 21.6 12.7 48 6.8 W 19 48 10 26 1004.3 1004.1 0.0
04/05:00pm 26.4 26.1 13.2 44 7.8 W 7 13 4 7 1003.6 1003.4 0.0
04/04:30pm 25.6 24.8 12.8 45 7.4 SW 9 19 5 10 1004.3 1004.1 0.0
04/04:00pm 29.7 26.4 10.8 31 10.9 NW 19 32 10 17 1004.7 1004.5 0.0
04/03:30pm 29.5 28.4 12.0 34 10.2 W 9 24 5 13 1005.0 1004.8 0.0
04/03:00pm 25.8 25.9 14.0 48 7.0 SSW 6 11 3 6 1005.5 1005.3 0.0
04/02:30pm 24.2 24.1 15.9 59 5.1 E 11 15 6 8 1005.7 1005.5 0.0
04/02:00pm 20.6 20.0 14.7 69 3.5 E 11 15 6 8 1006.0 1005.8 0.0
04/01:30pm 20.0 18.8 13.9 68 3.5 ESE 13 20 7 11 1006.5 1006.4 0.0
04/01:00pm 21.0 20.5 13.7 63 4.2 SE 9 17 5 9 1006.8 1006.7 0.0
04/12:30pm 23.7 22.5 12.7 50 6.3 NW 11 22 6 12 1006.8 1006.7 0.0
04/12:00pm 23.7 23.7 16.2 63 4.6 E 11 15 6 8 1007.0 1006.9 0.0
04/11:30am 20.5 18.6 14.2 67 3.7 E 17 24 9 13 1007.4 1007.3 0.0
04/11:00am 21.3 20.3 14.7 66 3.9 E 13 20 7 11 1007.9 1007.8 0.0
04/10:30am 20.7 20.3 15.3 71 3.2 E 11 15 6 8 1008.7 1008.6 0.0
04/10:00am 18.9 17.2 13.5 71 3.1 E 15 22 8 12 1009.0 1008.9 0.0
04/09:30am 17.5 14.7 12.6 73 2.7 E 19 22 10 12 1009.1 1009.0 0.0
04/09:00am 17.6 15.1 11.2 66 3.5 E 15 20 8 11 1009.3 1009.2 0.0
04/08:30am 16.2 13.5 11.6 74 2.5 E 17 20 9 11 1009.3 1009.2 0.0
04/08:00am 15.2 12.0 12.0 81 1.7 ENE 20 24 11 13 1009.5 1009.4 0.0
04/07:30am 15.1 12.2 12.8 86 1.3 ENE 20 28 11 15 1009.1 1009.0 0.0
04/07:00am 14.2 10.8 12.4 89 1.0 NE 22 32 12 17 1009.5 1009.4 0.0
04/06:30am 13.5 9.9 11.7 89 1.0 ENE 22 33 12 18 1009.8 1009.7 0.0
04/06:00am 13.3 10.0 11.5 89 1.0 ENE 20 30 11 16 1009.6 1009.5 0.0
04/05:30am 13.0 7.7 11.1 88 1.0 ENE 30 39 16 21 1009.5 1009.4 0.0
04/05:00am 13.0 7.7 11.1 88 1.0 ENE 30 43 16 23 1009.8 1009.7 0.0
04/04:30am 13.1 7.7 11.0 87 1.1 ENE 30 43 16 23 1010.2 1010.1 0.0
04/04:00am 13.2 8.2 10.9 86 1.2 ENE 28 43 15 23 1010.3 1010.2 0.0
04/03:30am 13.1 7.6 10.6 85 1.3 ENE 30 46 16 25 1010.4 1010.3 0.0
04/03:00am 13.1 7.9 10.3 83 1.5 ENE 28 39 15 21 1010.8 1010.7 0.0
04/02:30am 13.1 7.5 10.1 82 1.6 ENE 30 43 16 23 1011.0 1010.9 0.0
04/02:00am 13.3 7.7 10.1 81 1.7 ENE 30 41 16 22 1011.6 1011.5 0.0
04/01:30am 13.3 7.1 10.1 81 1.7 ENE 33 46 18 25 1011.8 1011.7 0.0
04/01:00am 13.3 7.2 9.9 80 1.8 ENE 32 43 17 23 1012.3 1012.2 0.0
04/12:30am 13.4 7.3 9.8 79 1.9 ENE 32 43 17 23 1012.8 1012.7 0.0
04/12:00am 13.5 8.1 9.6 77 2.0 ENE 28 39 15 21 1013.4 1013.3 0.0
 
Date/Time
EDT
Temp
°C
App
Temp
°C
Dew
Point
°C
Rel
Hum
%
Delta-T
°C
Wind Press
QNH
hPa
Press
MSL
hPa
Rain since
9am
mm
Dir  Spd
km/h
Gust
km/h
Spd
kts
Gust
kts
03/11:30pm 13.6 8.1 9.3 75 2.2 ENE 28 39 15 21 1014.0 1013.9 0.0
03/11:00pm 13.8 8.3 9.0 73 2.4 ENE 28 37 15 20 1014.2 1014.1 0.0
03/10:30pm 13.9 8.3 8.7 71 2.6 ENE 28 37 15 20 1014.3 1014.2 0.0
03/10:00pm 13.8 8.5 8.4 70 2.7 ENE 26 37 14 20 1014.5 1014.4 0.0
03/09:30pm 13.8 8.4 8.2 69 2.8 ENE 26 35 14 19 1014.3 1014.2 0.0
03/09:00pm 13.9 8.1 7.9 67 3.0 E 28 35 15 19 1014.2 1014.1 0.0
03/08:30pm 14.1 8.6 7.6 65 3.2 E 26 35 14 19 1014.4 1014.3 0.0
03/08:00pm 14.5 8.9 7.3 62 3.5 E 26 35 14 19 1014.4 1014.3 0.0
03/07:30pm 14.7 9.9 7.5 62 3.6 E 22 35 12 19 1014.4 1014.3 0.0
03/07:00pm 15.1 11.4 7.9 62 3.6 E 17 26 9 14 1014.5 1014.4 0.0
03/06:30pm 15.5 11.4 7.8 60 3.9 E 19 30 10 16 1014.6 1014.5 0.0
03/06:00pm 15.6 11.8 7.6 59 4.0 E 17 26 9 14 1014.6 1014.5 0.0
03/05:30pm 16.1 11.8 7.8 58 4.2 E 20 30 11 16 1014.6 1014.5 0.0
03/05:00pm 16.4 12.1 7.9 57 4.3 E 20 30 11 16 1014.9 1014.8 0.0
03/04:30pm 16.3 11.6 7.8 57 4.3 E 22 35 12 19 1014.9 1014.8 0.0
03/04:00pm 16.7 12.5 7.6 55 4.6 E 19 30 10 16 1015.2 1015.0 0.0
03/03:30pm 17.0 12.7 7.9 55 4.6 E 20 28 11 15 1015.3 1015.1 0.0
03/03:00pm 16.5 11.8 7.7 56 4.4 E 22 30 12 16 1015.5 1015.3 0.0
03/02:30pm 16.9 12.7 8.3 57 4.4 E 20 32 11 17 1015.7 1015.5 0.0
03/02:00pm 16.6 12.0 8.1 57 4.3 ESE 22 28 12 15 1016.0 1015.8 0.0
03/01:30pm 16.0 11.2 7.2 56 4.4 ESE 22 28 12 15 1016.1 1015.9 0.0
03/01:00pm 16.1 11.3 7.3 56 4.4 ESE 22 28 12 15 1016.1 1015.9 0.0
03/12:30pm 16.0 11.4 6.7 54 4.6 ESE 20 24 11 13 1016.3 1016.1 0.0
03/12:00pm 16.5 12.8 8.0 57 4.3 ESE 17 22 9 12 1016.5 1016.4 0.0
03/11:30am 16.2 13.1 7.2 55 4.5 SE 13 19 7 10 1016.6 1016.5 0.0
03/11:00am 16.8 13.9 8.0 56 4.5 SE 13 17 7 9 1016.9 1016.8 0.0
03/10:30am 16.4 14.0 7.1 54 4.6 SSE 9 15 5 8 1016.9 1016.8 0.0
03/10:00am 16.3 14.3 8.5 60 4.0 SSW 9 13 5 7 1017.0 1016.9 0.0
03/09:30am 15.1 12.8 7.4 60 3.8 SSW 9 11 5 6 1017.0 1016.9 0.0
03/09:00am 15.2 13.1 8.4 64 3.4 SSW 9 9 5 5 1016.6 1016.5 0.0
03/08:30am 14.7 12.6 8.4 66 3.2 SSW 9 11 5 6 1016.4 1016.2 0.0
03/08:00am 13.7 11.8 7.7 67 3.0 N 7 9 4 5 1016.3 1016.1 0.0
03/07:30am 12.6 10.6 8.7 77 2.0 N 9 11 5 6 1016.2 1016.0 0.0
03/07:00am 10.5 7.8 7.4 81 1.5 N 11 13 6 7 1015.8 1015.6 0.0
03/06:30am 8.8 5.4 6.1 83 1.2 N 13 15 7 8 1015.6 1015.4 0.0
03/06:00am 8.0 4.5 5.3 83 1.2 N 13 15 7 8 1015.4 1015.2 0.0
03/05:30am 7.9 4.3 5.0 82 1.3 N 13 13 7 7 1015.1 1014.9 0.0
03/05:00am 8.0 4.4 4.9 81 1.4 N 13 13 7 7 1014.8 1014.7 0.0
03/04:30am 8.3 4.3 5.1 80 1.4 N 15 15 8 8 1014.9 1014.8 0.0
03/04:00am 8.6 4.7 5.2 79 1.5 N 15 17 8 9 1014.8 1014.7 0.0
03/03:30am 8.7 4.3 4.9 77 1.7 N 17 19 9 10 1015.2 1015.0 0.0
03/03:00am 8.8 4.7 4.6 75 1.9 N 15 17 8 9 1015.2 1015.0 0.0
03/02:30am 9.1 5.1 4.7 74 2.0 N 15 17 8 9 1015.6 1015.4 0.0
03/02:00am 9.8 6.2 5.2 73 2.1 NNW 13 15 7 8 1015.8 1015.6 0.0
03/01:30am 10.9 7.8 5.7 70 2.4 NNW 11 15 6 8 1016.2 1016.0 0.0
03/01:00am 12.7 9.5 6.7 67 2.9 WSW 13 20 7 11 1016.4 1016.2 0.0
03/12:30am 13.1 10.0 7.1 67 2.9 WSW 13 19 7 10 1016.4 1016.2 0.0
03/12:00am 12.9 8.5 6.7 66 3.0 WSW 19 24 10 13 1016.3 1016.1 0.0
 
Date/Time
EDT
Temp
°C
App
Temp
°C
Dew
Point
°C
Rel
Hum
%
Delta-T
°C
Wind Press
QNH
hPa
Press
MSL
hPa
Rain since
9am
mm
Dir  Spd
km/h
Gust
km/h
Spd
kts
Gust
kts
02/11:30pm 13.0 9.0 6.8 66 3.0 WSW 17 22 9 12 1016.4 1016.2 0.0
02/11:00pm 13.1 8.7 6.7 65 3.1 WSW 19 28 10 15 1016.4 1016.2 0.0
02/10:30pm 13.1 9.1 6.7 65 3.1 WSW 17 26 9 14 1016.4 1016.2 0.0
02/10:00pm 13.3 9.0 7.1 66 3.0 W 19 24 10 13 1016.4 1016.2 0.0
02/09:30pm 13.1 8.7 6.7 65 3.1 W 19 24 10 13 1016.3 1016.1 0.0
02/09:00pm 13.2 8.8 6.5 64 3.2 W 19 26 10 14 1016.1 1015.9 0.0
02/08:30pm 13.3 8.9 6.4 63 3.3 W 19 24 10 13 1015.7 1015.5 0.0
02/08:00pm 14.1 9.5 5.7 57 4.0 W 19 28 10 15 1015.4 1015.2 0.0
02/07:30pm 14.6 9.4 5.7 55 4.2 W 22 28 12 15 1015.2 1015.0 0.0
02/07:00pm 14.9 9.3 5.4 53 4.5 W 24 32 13 17 1014.9 1014.8 0.0
02/06:30pm 15.2 9.3 6.0 54 4.4 W 26 33 14 18 1014.7 1014.6 0.0
02/06:00pm 15.6 10.6 6.3 54 4.5 W 22 32 12 17 1014.5 1014.4 0.0
02/05:30pm 15.7 10.4 5.0 49 5.1 W 22 32 12 17 1014.6 1014.5 0.0
02/05:00pm 15.7 10.1 5.3 50 5.0 W 24 32 13 17 1014.5 1014.4 0.0
02/04:30pm 15.9 9.9 5.2 49 5.1 W 26 35 14 19 1014.4 1014.3 0.0
02/04:00pm 16.1 10.6 5.7 50 5.0 W 24 35 13 19 1014.4 1014.3 0.0
02/03:30pm 15.8 10.1 6.8 55 4.4 W 26 35 14 19 1014.3 1014.2 0.0
02/03:00pm 16.0 10.6 8.0 59 4.0 WSW 26 37 14 20 1014.2 1014.1 0.0
02/02:30pm 16.3 11.2 7.8 57 4.3 W 24 33 13 18 1013.9 1013.8 0.0
02/02:00pm 16.2 11.6 8.2 59 4.1 W 22 33 12 18 1013.9 1013.8 0.0
02/01:30pm 15.3 10.6 7.8 61 3.8 WSW 22 33 12 18 1013.7 1013.6 0.0

Other Formats:

Comma delimited format used in spreadsheet applications
http://www.bom.gov.au/fwo/IDV60801/IDV60801.94842.axf

JavaScript Object Notation format (JSON) in row-major order
http://www.bom.gov.au/fwo/IDV60801/IDV60801.94842.json